Airfield :
LOGIN :

Register | Disclaimer

   EN    FR    IT 

 










Legend :    VFR   Marginal VFR   IFR   Intensive IFR   Very Intensive IFR
Visi :
Ceiling :
>= 8 km
>= 3000ft
5 to 8 km
1000 to 3000 ft
1500m to 5 km
500 to 1000 ft
800 to 1500m
200 to 500 ft
< 800m
< 200 ft
Symbols :   Thunderstorms  Fog  Heavy snow  Heavy precipitations  Wind > 20 kt
SIGMETs :     Misc.  Thunderstorms  Icing  Turbulence  Mountain Waves  Volcanic Ashes






- Airport Elevation : 285 ft
- IATA code : OZP


LEMO - Sevilla Moron

CURRENT METAR :
  • 161200Z 18024KT CAVOK 20/03 Q1001 NOSIG

EXPIRED METARs :
  • 161100Z 19025G35KT CAVOK 20/03 Q1003 NOSIG
  • 161014Z 18026G36KT CAVOK 20/02 Q1003 NOSIG
  • 161000Z 18023KT CAVOK 19/03 Q1003 NOSIG

TAF TAF LEMO
Valid from the 16 at 12:00 until the 16 at 21:00 UTC


161100Z 1612/1621 17014KT 9999 SCT040
PROB40
TEMPO 1612/1621 19020G30KT
PROB30
TEMPO 1612/1618 18028G40KT



MET'MAP, your aeronautical weather chart ! - Copyright ORBIFLY December 2007 - Disclaimer

ORBIFLY MET'MAP TEAM :

Programming & Development : Alexandra Zaïnal
Concept & original design : Baudouin d'Aumeries
Assistance for programming : Marc-Olivier Méhu
Technical & hardware support : Manuel Goepfert

Contact : metmap@orbifly.com




SOURCES & CREDITS :

   NOAA